sensor_id;sensor_type;location;lat;lon;timestamp;pressure;altitude;pressure_sealevel;temperature;humidity
9235;BME280;4652;42.716;23.218;2022-09-02T01:06:57;94629.19;;;19.57;100.00
9235;BME280;4652;42.716;23.218;2022-09-02T01:13:41;94628.19;;;19.49;100.00
9235;BME280;4652;42.716;23.218;2022-09-02T01:20:25;94607.84;;;19.47;100.00
9235;BME280;4652;42.716;23.218;2022-09-02T01:27:08;94619.84;;;19.58;100.00
9235;BME280;4652;42.716;23.218;2022-09-02T01:33:54;94635.34;;;19.54;100.00
9235;BME280;4652;42.716;23.218;2022-09-02T01:40:38;94635.88;;;19.31;100.00
9235;BME280;4652;42.716;23.218;2022-09-02T01:47:23;94630.78;;;19.02;100.00
9235;BME280;4652;42.716;23.218;2022-09-02T01:54:06;94630.66;;;18.99;100.00
9235;BME280;4652;42.716;23.218;2022-09-02T02:00:49;94620.44;;;18.96;100.00
9235;BME280;4652;42.716;23.218;2022-09-02T02:07:33;94601.44;;;18.99;100.00
9235;BME280;4652;42.716;23.218;2022-09-02T02:14:16;94605.03;;;19.03;100.00
9235;BME280;4652;42.716;23.218;2022-09-02T02:20:58;94565.88;;;18.84;100.00
9235;BME280;4652;42.716;23.218;2022-09-02T02:27:42;94594.13;;;19.03;100.00
9235;BME280;4652;42.716;23.218;2022-09-02T02:34:25;94593.25;;;18.99;100.00
9235;BME280;4652;42.716;23.218;2022-09-02T02:41:07;94598.00;;;19.02;100.00
9235;BME280;4652;42.716;23.218;2022-09-02T02:47:51;94565.25;;;18.74;100.00
9235;BME280;4652;42.716;23.218;2022-09-02T02:54:33;94584.59;;;18.69;100.00
9235;BME280;4652;42.716;23.218;2022-09-02T03:01:16;94581.78;;;18.54;100.00
9235;BME280;4652;42.716;23.218;2022-09-02T03:08:00;94572.16;;;18.32;100.00
9235;BME280;4652;42.716;23.218;2022-09-02T03:14:43;94588.63;;;18.36;100.00
9235;BME280;4652;42.716;23.218;2022-09-02T03:21:25;94595.88;;;18.44;100.00
9235;BME280;4652;42.716;23.218;2022-09-02T03:28:09;94581.56;;;18.47;100.00
9235;BME280;4652;42.716;23.218;2022-09-02T03:34:51;94604.75;;;18.53;100.00
9235;BME280;4652;42.716;23.218;2022-09-02T03:41:33;94594.50;;;18.62;100.00
9235;BME280;4652;42.716;23.218;2022-09-02T03:48:17;94611.34;;;18.64;100.00
9235;BME280;4652;42.716;23.218;2022-09-02T03:54:59;94596.81;;;18.36;100.00
9235;BME280;4652;42.716;23.218;2022-09-02T04:01:41;94631.31;;;18.56;100.00
9235;BME280;4652;42.716;23.218;2022-09-02T04:08:26;94654.06;;;18.60;100.00
9235;BME280;4652;42.716;23.218;2022-09-02T04:15:10;94664.03;;;18.68;100.00
9235;BME280;4652;42.716;23.218;2022-09-02T04:21:53;94662.44;;;18.67;100.00
9235;BME280;4652;42.716;23.218;2022-09-02T04:28:36;94671.97;;;18.73;100.00
9235;BME280;4652;42.716;23.218;2022-09-02T04:35:18;94666.28;;;18.78;100.00
9235;BME280;4652;42.716;23.218;2022-09-02T04:42:01;94671.19;;;18.72;100.00
9235;BME280;4652;42.716;23.218;2022-09-02T04:48:45;94666.78;;;18.44;100.00
9235;BME280;4652;42.716;23.218;2022-09-02T04:55:27;94693.16;;;18.52;100.00
9235;BME280;4652;42.716;23.218;2022-09-02T05:02:10;94701.78;;;18.54;100.00
9235;BME280;4652;42.716;23.218;2022-09-02T05:08:55;94693.25;;;18.43;100.00
9235;BME280;4652;42.716;23.218;2022-09-02T05:15:38;94712.00;;;18.57;100.00
9235;BME280;4652;42.716;23.218;2022-09-02T05:22:22;94706.00;;;18.63;100.00
9235;BME280;4652;42.716;23.218;2022-09-02T05:29:11;94713.78;;;18.89;100.00
9235;BME280;4652;42.716;23.218;2022-09-02T05:35:54;94700.69;;;19.07;100.00
9235;BME280;4652;42.716;23.218;2022-09-02T05:42:36;94691.63;;;19.30;100.00
9235;BME280;4652;42.716;23.218;2022-09-02T05:49:19;94679.69;;;19.63;100.00
9235;BME280;4652;42.716;23.218;2022-09-02T05:56:03;94673.44;;;19.78;100.00
9235;BME280;4652;42.716;23.218;2022-09-02T06:02:45;94661.81;;;19.81;100.00
9235;BME280;4652;42.716;23.218;2022-09-02T06:09:29;94664.22;;;19.82;100.00
9235;BME280;4652;42.716;23.218;2022-09-02T06:16:13;94642.84;;;19.72;100.00
9235;BME280;4652;42.716;23.218;2022-09-02T06:22:56;94653.22;;;20.10;100.00
9235;BME280;4652;42.716;23.218;2022-09-02T06:29:40;94668.88;;;20.13;100.00
9235;BME280;4652;42.716;23.218;2022-09-02T06:36:24;94667.00;;;20.29;100.00
9235;BME280;4652;42.716;23.218;2022-09-02T06:43:06;94683.22;;;20.38;100.00
9235;BME280;4652;42.716;23.218;2022-09-02T06:49:50;94676.34;;;20.28;100.00
9235;BME280;4652;42.716;23.218;2022-09-02T06:56:33;94707.03;;;20.37;100.00
9235;BME280;4652;42.716;23.218;2022-09-02T07:06:57;94702.81;;;20.40;100.00
9235;BME280;4652;42.716;23.218;2022-09-02T07:13:40;94709.91;;;20.76;100.00
9235;BME280;4652;42.716;23.218;2022-09-02T07:20:24;94713.09;;;21.47;100.00
9235;BME280;4652;42.716;23.218;2022-09-02T07:27:08;94692.88;;;21.36;100.00
9235;BME280;4652;42.716;23.218;2022-09-02T07:33:50;94693.19;;;21.50;100.00
9235;BME280;4652;42.716;23.218;2022-09-02T07:40:33;94686.97;;;21.73;100.00
9235;BME280;4652;42.716;23.218;2022-09-02T07:47:18;94669.91;;;22.02;100.00
9235;BME280;4652;42.716;23.218;2022-09-02T07:54:01;94659.19;;;22.16;100.00
9235;BME280;4652;42.716;23.218;2022-09-02T08:00:43;94665.38;;;22.58;100.00
9235;BME280;4652;42.716;23.218;2022-09-02T08:07:27;94675.50;;;22.54;100.00
9235;BME280;4652;42.716;23.218;2022-09-02T08:14:12;94694.16;;;22.45;100.00
9235;BME280;4652;42.716;23.218;2022-09-02T08:20:54;94669.31;;;22.12;100.00
9235;BME280;4652;42.716;23.218;2022-09-02T08:27:39;94670.44;;;21.88;100.00
9235;BME280;4652;42.716;23.218;2022-09-02T08:34:21;94670.88;;;21.90;100.00
9235;BME280;4652;42.716;23.218;2022-09-02T08:41:11;94683.75;;;22.09;100.00
9235;BME280;4652;42.716;23.218;2022-09-02T08:48:03;94668.69;;;22.22;100.00
9235;BME280;4652;42.716;23.218;2022-09-02T08:54:49;94674.75;;;22.31;100.00
9235;BME280;4652;42.716;23.218;2022-09-02T09:01:42;94656.59;;;22.04;100.00
9235;BME280;4652;42.716;23.218;2022-09-02T09:08:32;94652.72;;;22.05;100.00
9235;BME280;4652;42.716;23.218;2022-09-02T09:15:23;94662.28;;;22.37;100.00
9235;BME280;4652;42.716;23.218;2022-09-02T09:22:13;94654.56;;;22.20;100.00
9235;BME280;4652;42.716;23.218;2022-09-02T09:29:01;94651.75;;;22.39;100.00
9235;BME280;4652;42.716;23.218;2022-09-02T09:35:49;94631.81;;;22.42;100.00
9235;BME280;4652;42.716;23.218;2022-09-02T09:42:33;94643.88;;;22.87;100.00
9235;BME280;4652;42.716;23.218;2022-09-02T09:49:25;94647.09;;;23.25;100.00
9235;BME280;4652;42.716;23.218;2022-09-02T09:56:23;94639.88;;;23.40;100.00
9235;BME280;4652;42.716;23.218;2022-09-02T10:03:06;94651.09;;;23.61;100.00
9235;BME280;4652;42.716;23.218;2022-09-02T10:10:08;94637.56;;;23.79;100.00
9235;BME280;4652;42.716;23.218;2022-09-02T10:16:59;94637.38;;;23.31;100.00
9235;BME280;4652;42.716;23.218;2022-09-02T10:23:52;94613.19;;;23.11;100.00
9235;BME280;4652;42.716;23.218;2022-09-02T10:30:43;94639.31;;;23.27;100.00
9235;BME280;4652;42.716;23.218;2022-09-02T10:37:34;94638.03;;;23.21;100.00
9235;BME280;4652;42.716;23.218;2022-09-02T10:44:26;94620.25;;;23.12;100.00
9235;BME280;4652;42.716;23.218;2022-09-02T10:51:26;94618.56;;;23.04;100.00
9235;BME280;4652;42.716;23.218;2022-09-02T10:58:14;94621.47;;;23.44;100.00
9235;BME280;4652;42.716;23.218;2022-09-02T11:05:03;94596.53;;;23.30;100.00
9235;BME280;4652;42.716;23.218;2022-09-02T11:11:54;94596.25;;;23.75;100.00
9235;BME280;4652;42.716;23.218;2022-09-02T11:18:42;94616.56;;;24.41;100.00
9235;BME280;4652;42.716;23.218;2022-09-02T11:25:30;94597.72;;;24.50;100.00
9235;BME280;4652;42.716;23.218;2022-09-02T11:32:19;94616.25;;;24.57;100.00
9235;BME280;4652;42.716;23.218;2022-09-02T11:39:06;94583.97;;;24.03;100.00
9235;BME280;4652;42.716;23.218;2022-09-02T11:46:06;94583.56;;;24.48;100.00
9235;BME280;4652;42.716;23.218;2022-09-02T11:53:03;94576.63;;;24.68;100.00
9235;BME280;4652;42.716;23.218;2022-09-02T12:00:20;94574.81;;;24.35;100.00
9235;BME280;4652;42.716;23.218;2022-09-02T12:07:22;94570.81;;;24.26;100.00
9235;BME280;4652;42.716;23.218;2022-09-02T12:14:08;94544.78;;;24.74;100.00
9235;BME280;4652;42.716;23.218;2022-09-02T12:21:04;94543.69;;;24.89;100.00
9235;BME280;4652;42.716;23.218;2022-09-02T12:27:47;94570.19;;;25.15;100.00
9235;BME280;4652;42.716;23.218;2022-09-02T12:34:52;94548.53;;;25.13;100.00
9235;BME280;4652;42.716;23.218;2022-09-02T12:41:42;94539.66;;;25.73;100.00
9235;BME280;4652;42.716;23.218;2022-09-02T12:48:33;94533.13;;;25.05;100.00
9235;BME280;4652;42.716;23.218;2022-09-02T12:55:24;94530.63;;;24.76;100.00
9235;BME280;4652;42.716;23.218;2022-09-02T13:07:33;94486.63;;;24.18;100.00
9235;BME280;4652;42.716;23.218;2022-09-02T13:21:39;94528.16;;;24.06;100.00
9235;BME280;4652;42.716;23.218;2022-09-02T13:35:53;94582.78;;;22.97;100.00
9235;BME280;4652;42.716;23.218;2022-09-02T13:42:46;94597.78;;;22.24;100.00
9235;BME280;4652;42.716;23.218;2022-09-02T13:49:34;94578.59;;;21.79;100.00
9235;BME280;4652;42.716;23.218;2022-09-02T13:56:24;94641.84;;;21.28;100.00
9235;BME280;4652;42.716;23.218;2022-09-02T14:03:12;94634.16;;;20.99;100.00
9235;BME280;4652;42.716;23.218;2022-09-02T14:09:58;94647.50;;;21.00;100.00
9235;BME280;4652;42.716;23.218;2022-09-02T14:16:42;94637.00;;;21.22;100.00
9235;BME280;4652;42.716;23.218;2022-09-02T14:23:26;94651.19;;;21.46;100.00
9235;BME280;4652;42.716;23.218;2022-09-02T14:30:11;94652.94;;;21.35;100.00
9235;BME280;4652;42.716;23.218;2022-09-02T14:36:53;94673.78;;;21.21;100.00
9235;BME280;4652;42.716;23.218;2022-09-02T14:43:42;94669.25;;;21.09;100.00
9235;BME280;4652;42.716;23.218;2022-09-02T14:50:29;94684.56;;;20.79;100.00
9235;BME280;4652;42.716;23.218;2022-09-02T22:16:02;94900.31;;;17.16;100.00
9235;BME280;4652;42.716;23.218;2022-09-02T22:22:57;94899.03;;;17.13;100.00
9235;BME280;4652;42.716;23.218;2022-09-02T22:29:45;94883.78;;;17.21;100.00
9235;BME280;4652;42.716;23.218;2022-09-02T22:36:39;94870.66;;;17.23;100.00
9235;BME280;4652;42.716;23.218;2022-09-02T22:43:27;94867.75;;;17.28;100.00
9235;BME280;4652;42.716;23.218;2022-09-02T22:50:14;94852.97;;;17.08;100.00
9235;BME280;4652;42.716;23.218;2022-09-02T22:57:28;94864.81;;;17.12;100.00
9235;BME280;4652;42.716;23.218;2022-09-02T23:04:28;94874.28;;;17.06;100.00
9235;BME280;4652;42.716;23.218;2022-09-02T23:11:14;94874.41;;;17.10;100.00
9235;BME280;4652;42.716;23.218;2022-09-02T23:18:10;94870.09;;;17.09;100.00
9235;BME280;4652;42.716;23.218;2022-09-02T23:25:05;94867.66;;;17.16;100.00
9235;BME280;4652;42.716;23.218;2022-09-02T23:32:06;94857.63;;;17.08;100.00
9235;BME280;4652;42.716;23.218;2022-09-02T23:39:13;94878.03;;;17.22;100.00
9235;BME280;4652;42.716;23.218;2022-09-02T23:46:01;94871.97;;;17.17;100.00
9235;BME280;4652;42.716;23.218;2022-09-02T23:52:50;94878.06;;;17.14;100.00
9235;BME280;4652;42.716;23.218;2022-09-02T23:59:52;94879.03;;;17.18;100.00
